createdAt,value
2019-04-07T00:00:51.943Z,97289.19
2019-04-07T00:03:21.350Z,97292.35
2019-04-07T00:05:50.695Z,97281.83
2019-04-07T00:08:20.511Z,97289.30
2019-04-07T00:10:49.743Z,97287.45
2019-04-07T00:13:18.944Z,97291.73
2019-04-07T00:15:48.720Z,97292.60
2019-04-07T00:18:18.304Z,97290.91
2019-04-07T00:20:47.581Z,97288.92
2019-04-07T00:23:17.613Z,97290.63
2019-04-07T00:25:47.056Z,97291.36
2019-04-07T00:28:16.259Z,97290.55
2019-04-07T00:30:45.424Z,97290.88
2019-04-07T00:33:14.592Z,97290.60
2019-04-07T00:35:43.803Z,97292.66
2019-04-07T00:38:13.149Z,97293.11
2019-04-07T00:40:42.825Z,97290.88
2019-04-07T00:43:12.131Z,97289.63
2019-04-07T00:45:41.605Z,97294.97
2019-04-07T00:48:11.096Z,97290.61
2019-04-07T00:50:40.578Z,97287.50
2019-04-07T00:53:09.869Z,97286.84
2019-04-07T00:55:39.644Z,97288.47
2019-04-07T00:58:08.882Z,97287.98
2019-04-07T01:00:40.030Z,97285.38
2019-04-07T01:03:09.503Z,97292.77
2019-04-07T01:05:41.431Z,97294.94
2019-04-07T01:08:09.759Z,97293.08
2019-04-07T01:10:40.784Z,97288.66
2019-04-07T01:13:10.738Z,97289.90
2019-04-07T01:15:40.645Z,97294.75
2019-04-07T01:18:10.056Z,97284.32
2019-04-07T01:20:39.601Z,97283.42
2019-04-07T01:23:08.865Z,97287.97
2019-04-07T01:25:38.056Z,97285.00
2019-04-07T01:28:07.233Z,97283.46
2019-04-07T01:30:37.075Z,97290.81
2019-04-07T01:33:06.439Z,97294.22
2019-04-07T01:35:45.086Z,97290.38
2019-04-07T01:38:07.254Z,97292.30
2019-04-07T01:40:36.674Z,97289.50
2019-04-07T01:43:33.995Z,97296.11
2019-04-07T01:46:24.224Z,97306.84
2019-04-07T01:49:15.099Z,97301.39
2019-04-07T01:51:53.251Z,97301.29
2019-04-07T01:54:42.052Z,97304.47
2019-04-07T01:57:30.240Z,97306.66
2019-04-07T02:00:06.212Z,97306.42
2019-04-07T02:03:07.517Z,97310.48
2019-04-07T02:06:08.019Z,97304.61
2019-04-07T02:09:00.927Z,97311.70
2019-04-07T02:11:48.003Z,97309.92
2019-04-07T02:14:22.570Z,97305.68
2019-04-07T02:17:08.388Z,97312.50
2019-04-07T02:20:00.269Z,97312.06
2019-04-07T02:22:47.479Z,97310.35
2019-04-07T02:25:48.071Z,97313.02
2019-04-07T02:28:51.649Z,97316.38
2019-04-07T02:31:38.430Z,97321.92
2019-04-07T02:34:15.618Z,97317.59
2019-04-07T02:36:56.032Z,97311.43
2019-04-07T02:39:37.173Z,97314.87
2019-04-07T02:42:30.325Z,97314.38
2019-04-07T02:45:10.970Z,97318.09
2019-04-07T02:48:01.214Z,97315.22
2019-04-07T02:50:55.397Z,97311.11
2019-04-07T02:53:37.075Z,97320.44
2019-04-07T02:56:29.319Z,97324.80
2019-04-07T02:59:16.286Z,97318.20
2019-04-07T03:02:12.046Z,97326.02
2019-04-07T03:04:57.118Z,97326.37
2019-04-07T03:07:47.231Z,97324.02
2019-04-07T03:10:29.100Z,97325.52
2019-04-07T03:13:17.360Z,97322.19
2019-04-07T03:16:09.451Z,97330.68
2019-04-07T03:18:47.178Z,97332.09
2019-04-07T03:21:36.202Z,97345.38
2019-04-07T03:24:17.005Z,97341.39
2019-04-07T03:27:11.119Z,97353.57
2019-04-07T03:29:59.083Z,97350.75
2019-04-07T03:32:42.859Z,97347.42
2019-04-07T03:35:13.168Z,97352.98
2019-04-07T03:38:18.781Z,97351.23
2019-04-07T03:41:16.243Z,97351.23
2019-04-07T03:44:10.472Z,97349.46
2019-04-07T03:47:07.675Z,97347.33
2019-04-07T03:49:47.728Z,97366.26
2019-04-07T03:52:25.017Z,97364.84
2019-04-07T03:55:13.243Z,97367.19
2019-04-07T03:58:01.654Z,97370.75
2019-04-07T04:01:17.983Z,97369.79
2019-04-07T04:03:59.439Z,97369.45
2019-04-07T04:06:47.621Z,97370.96
2019-04-07T04:09:26.365Z,97368.73
2019-04-07T04:12:01.290Z,97370.03
2019-04-07T04:14:37.660Z,97368.36
2019-04-07T04:17:08.049Z,97371.80
2019-04-07T04:19:37.712Z,97373.81
2019-04-07T04:22:07.380Z,97374.41
2019-04-07T04:24:36.873Z,97378.09
2019-04-07T04:27:06.744Z,97380.20
2019-04-07T04:29:35.963Z,97378.89
2019-04-07T04:32:05.818Z,97389.88
2019-04-07T04:34:35.192Z,97386.82
2019-04-07T04:37:04.406Z,97394.75
2019-04-07T04:39:33.568Z,97388.37
2019-04-07T04:42:02.724Z,97392.61
2019-04-07T04:44:31.889Z,97395.80
2019-04-07T04:47:01.592Z,97395.45
2019-04-07T04:49:33.225Z,97398.77
2019-04-07T04:52:03.079Z,97402.07
2019-04-07T04:54:33.355Z,97396.72
2019-04-07T04:57:06.151Z,97407.34
2019-04-07T04:59:33.516Z,97406.55
2019-04-07T05:02:03.379Z,97414.48
2019-04-07T05:04:32.778Z,97415.29
2019-04-07T05:07:02.010Z,97415.24
2019-04-07T05:09:41.142Z,97414.57
2019-04-07T05:12:04.797Z,97418.88
2019-04-07T05:14:33.348Z,97416.73
2019-04-07T05:17:02.545Z,97424.54
2019-04-07T05:19:32.299Z,97413.08
2019-04-07T05:22:02.431Z,97415.80
2019-04-07T05:24:32.248Z,97418.16
2019-04-07T05:27:01.962Z,97423.09
2019-04-07T05:29:31.270Z,97421.45
2019-04-07T05:32:01.416Z,97422.47
2019-04-07T05:34:31.141Z,97430.62
2019-04-07T05:37:01.206Z,97423.25
2019-04-07T05:39:30.907Z,97426.31
2019-04-07T05:42:00.414Z,97424.31
2019-04-07T05:44:29.632Z,97426.29
2019-04-07T05:46:58.819Z,97426.16
2019-04-07T05:49:28.226Z,97429.56
2019-04-07T05:52:01.383Z,97437.94
2019-04-07T05:54:28.647Z,97437.84
2019-04-07T05:57:01.191Z,97441.05
2019-04-07T05:59:28.896Z,97440.46
2019-04-07T06:02:01.326Z,97447.35
2019-04-07T06:04:29.225Z,97446.58
2019-04-07T06:06:59.081Z,97451.80
2019-04-07T06:09:29.545Z,97450.95
2019-04-07T06:11:58.956Z,97448.73
2019-04-07T06:14:28.102Z,97453.45
2019-04-07T06:16:57.285Z,97450.48
2019-04-07T06:19:26.523Z,97449.91
2019-04-07T06:22:00.057Z,97443.89
2019-04-07T06:24:31.648Z,97434.95
2019-04-07T06:27:00.846Z,97436.65
2019-04-07T06:29:30.286Z,97436.33
2019-04-07T06:32:02.407Z,97432.05
2019-04-07T06:34:30.568Z,97437.22
2019-04-07T06:36:59.888Z,97440.55
2019-04-07T06:39:31.889Z,97440.55
2019-04-07T06:42:01.452Z,97438.69
2019-04-07T06:44:31.383Z,97441.87
2019-04-07T06:47:17.984Z,97437.61
2019-04-07T06:50:10.013Z,97441.02
2019-04-07T06:53:02.224Z,97441.22
2019-04-07T06:55:49.711Z,97445.44
2019-04-07T06:58:43.827Z,97442.62
2019-04-07T07:01:47.676Z,97441.70
2019-04-07T07:04:43.785Z,97442.20
2019-04-07T07:07:32.635Z,97439.12
2019-04-07T07:10:09.521Z,97443.10
2019-04-07T07:13:11.560Z,97439.39
2019-04-07T07:15:49.405Z,97440.45
2019-04-07T07:18:47.113Z,97438.26
2019-04-07T07:21:36.338Z,97442.58
2019-04-07T07:24:04.968Z,97444.09
2019-04-07T07:26:35.457Z,97442.67
2019-04-07T07:29:06.409Z,97439.27
2019-04-07T07:31:35.793Z,97432.34
2019-04-07T07:34:05.161Z,97434.03
2019-04-07T07:36:34.964Z,97433.98
2019-04-07T07:39:10.208Z,97431.22
2019-04-07T07:41:37.803Z,97444.03
2019-04-07T07:44:08.493Z,97435.36
2019-04-07T07:46:38.593Z,97443.21
2019-04-07T07:49:07.751Z,97443.26
2019-04-07T07:51:38.646Z,97449.88
2019-04-07T07:54:07.809Z,97448.44
2019-04-07T07:56:37.870Z,97448.05
2019-04-07T07:59:08.697Z,97435.89
2019-04-07T08:01:38.218Z,97440.58
2019-04-07T08:04:07.493Z,97444.73
2019-04-07T08:06:38.529Z,97443.13
2019-04-07T08:09:13.701Z,97439.22
2019-04-07T08:11:39.985Z,97439.94
2019-04-07T08:14:09.977Z,97446.84
2019-04-07T08:16:39.994Z,97442.06
2019-04-07T08:19:10.262Z,97445.03
2019-04-07T08:21:40.406Z,97448.70
2019-04-07T08:24:11.321Z,97445.21
2019-04-07T08:26:41.222Z,97446.05
2019-04-07T08:29:12.570Z,97445.52
2019-04-07T08:31:41.521Z,97448.70
2019-04-07T08:34:10.977Z,97453.07
2019-04-07T08:36:43.470Z,97452.56
2019-04-07T08:39:21.496Z,97447.73
2019-04-07T08:41:43.447Z,97454.22
2019-04-07T08:44:12.830Z,97444.83
2019-04-07T08:46:43.280Z,97450.84
2019-04-07T08:49:12.905Z,97446.33
2019-04-07T08:51:42.737Z,97445.31
2019-04-07T08:54:15.732Z,97449.95
2019-04-07T08:56:43.639Z,97450.81
2019-04-07T08:59:16.701Z,97450.52
2019-04-07T09:01:44.594Z,97449.81
2019-04-07T09:04:16.526Z,97450.04
2019-04-07T09:06:45.309Z,97444.39
2019-04-07T09:09:14.475Z,97447.03
2019-04-07T09:11:43.763Z,97446.53
2019-04-07T09:14:15.094Z,97441.02
2019-04-07T09:17:08.260Z,97447.31
2019-04-07T09:19:45.786Z,97447.79
2019-04-07T09:22:23.125Z,97448.28
2019-04-07T09:25:17.268Z,97461.97
2019-04-07T09:28:08.735Z,97456.02
2019-04-07T09:31:06.351Z,97462.16
2019-04-07T09:34:07.058Z,97461.78
2019-04-07T09:36:55.685Z,97460.98
2019-04-07T09:40:02.922Z,97461.13
2019-04-07T09:42:50.793Z,97459.91
2019-04-07T09:45:42.582Z,97463.30
2019-04-07T09:48:30.794Z,97455.46
2019-04-07T09:51:16.469Z,97456.03
2019-04-07T09:54:19.205Z,97462.84
2019-04-07T09:57:19.036Z,97464.92
2019-04-07T10:00:09.977Z,97475.38
2019-04-07T10:03:13.656Z,97469.42
2019-04-07T10:05:59.364Z,97476.64
2019-04-07T10:08:35.244Z,97473.56
2019-04-07T10:11:27.429Z,97473.28
2019-04-07T10:14:19.591Z,97483.25
2019-04-07T10:17:08.751Z,97480.74
2019-04-07T10:19:56.168Z,97479.56
2019-04-07T10:22:40.369Z,97491.31
2019-04-07T10:25:21.110Z,97485.09
2019-04-07T10:28:11.026Z,97486.31
2019-04-07T10:30:58.592Z,97486.69
2019-04-07T10:33:35.761Z,97489.39
2019-04-07T10:36:18.347Z,97488.09
2019-04-07T10:39:07.204Z,97487.67
2019-04-07T10:42:11.376Z,97482.31
2019-04-07T10:45:09.153Z,97478.64
2019-04-07T10:47:44.810Z,97483.66
2019-04-07T10:50:24.628Z,97477.89
2019-04-07T10:53:19.470Z,97479.34
2019-04-07T10:56:07.391Z,97478.23
2019-04-07T10:58:59.343Z,97475.95
2019-04-07T11:01:38.806Z,97478.65
2019-04-07T11:04:25.806Z,97480.23
2019-04-07T11:07:06.448Z,97476.50
2019-04-07T11:09:58.935Z,97477.38
2019-04-07T11:12:50.277Z,97476.76
2019-04-07T11:15:36.985Z,97481.16
2019-04-07T11:18:14.492Z,97484.96
2019-04-07T11:21:04.671Z,97483.06
2019-04-07T11:23:45.246Z,97486.02
2019-04-07T11:26:40.307Z,97476.59
2019-04-07T11:29:29.519Z,97473.84
2019-04-07T11:32:07.669Z,97475.12
2019-04-07T11:34:47.457Z,97471.47
2019-04-07T11:37:40.767Z,97465.84
2019-04-07T11:40:42.602Z,97461.85
2019-04-07T11:43:28.406Z,97466.47
2019-04-07T11:46:20.454Z,97461.92
2019-04-07T11:49:13.468Z,97466.34
2019-04-07T11:51:49.960Z,97464.06
2019-04-07T11:54:26.082Z,97462.25
2019-04-07T11:57:15.705Z,97463.91
2019-04-07T12:00:03.956Z,97465.77
2019-04-07T12:02:45.481Z,97469.12
2019-04-07T12:05:42.949Z,97470.47
2019-04-07T12:08:35.162Z,97464.16
2019-04-07T12:11:18.690Z,97463.73
2019-04-07T12:14:17.810Z,97460.55
2019-04-07T12:17:13.811Z,97463.36
2019-04-07T12:20:04.258Z,97452.88
2019-04-07T12:22:55.028Z,97456.02
2019-04-07T12:25:56.882Z,97453.70
2019-04-07T12:28:56.135Z,97463.42
2019-04-07T12:31:45.130Z,97461.54
2019-04-07T12:34:26.440Z,97462.25
2019-04-07T12:37:11.661Z,97456.80
2019-04-07T12:40:12.943Z,97464.73
2019-04-07T12:42:59.554Z,97455.77
2019-04-07T12:45:58.090Z,97457.43
2019-04-07T12:48:41.054Z,97466.02
2019-04-07T12:51:29.314Z,97458.50
2019-04-07T12:54:07.538Z,97461.95
2019-04-07T12:56:49.186Z,97462.55
2019-04-07T12:59:39.210Z,97458.50
2019-04-07T13:02:28.420Z,97455.17
2019-04-07T13:05:24.352Z,97452.09
2019-04-07T13:08:12.697Z,97445.71
2019-04-07T13:10:54.563Z,97442.28
2019-04-07T13:13:45.749Z,97448.70
2019-04-07T13:16:25.384Z,97452.83
2019-04-07T13:19:17.764Z,97448.31
2019-04-07T13:22:00.805Z,97456.90
2019-04-07T13:24:48.679Z,97452.10
2019-04-07T13:27:29.695Z,97455.80
2019-04-07T13:30:20.267Z,97454.10
2019-04-07T13:33:08.109Z,97463.52
2019-04-07T13:35:55.059Z,97461.86
2019-04-07T13:38:47.413Z,97458.84
2019-04-07T13:41:44.912Z,97462.15
2019-04-07T13:44:36.727Z,97463.91
2019-04-07T13:47:16.638Z,97464.24
2019-04-07T13:50:07.642Z,97464.80
2019-04-07T13:53:02.905Z,97465.16
2019-04-07T13:56:14.729Z,97472.67
2019-04-07T13:58:50.855Z,97470.74
2019-04-07T14:01:39.715Z,97473.72
2019-04-07T14:04:27.873Z,97471.49
2019-04-07T14:07:11.730Z,97472.95
2019-04-07T14:09:50.763Z,97475.61
2019-04-07T14:12:33.724Z,97478.80
2019-04-07T14:15:30.161Z,97481.05
2019-04-07T14:18:36.703Z,97478.73
2019-04-07T14:21:24.972Z,97476.78
2019-04-07T14:24:12.118Z,97484.81
2019-04-07T14:27:08.598Z,97485.94
2019-04-07T14:30:00.348Z,97486.11
2019-04-07T14:32:49.790Z,97487.27
2019-04-07T14:35:37.485Z,97490.12
2019-04-07T14:38:35.562Z,97492.53
2019-04-07T14:41:14.811Z,97488.59
2019-04-07T14:44:02.060Z,97487.86
2019-04-07T14:46:54.054Z,97492.23
2019-04-07T14:49:42.381Z,97490.66
2019-04-07T14:52:25.268Z,97495.45
2019-04-07T14:55:23.762Z,97489.72
2019-04-07T14:58:13.106Z,97485.33
2019-04-07T15:01:02.554Z,97482.88
2019-04-07T15:03:29.210Z,97491.67
2019-04-07T15:05:59.617Z,97498.42
2019-04-07T15:08:37.264Z,97495.27
2019-04-07T15:11:25.279Z,97491.48
2019-04-07T15:13:58.318Z,97486.37
2019-04-07T15:16:28.556Z,97490.61
2019-04-07T15:18:58.704Z,97491.22
2019-04-07T15:21:27.977Z,97492.87
2019-04-07T15:23:59.274Z,97492.62
2019-04-07T15:26:28.253Z,97490.30
2019-04-07T15:28:58.890Z,97496.55
2019-04-07T15:31:28.758Z,97493.30
2019-04-07T15:33:57.902Z,97496.58
2019-04-07T15:36:27.600Z,97503.66
2019-04-07T15:38:58.136Z,97498.73
2019-04-07T15:41:28.039Z,97500.94
2019-04-07T15:43:57.366Z,97497.27
2019-04-07T15:46:26.886Z,97499.08
2019-04-07T15:48:57.018Z,97498.50
2019-04-07T15:51:26.383Z,97504.80
2019-04-07T15:53:56.485Z,97499.08
2019-04-07T15:56:26.034Z,97501.02
2019-04-07T15:58:58.103Z,97505.43
2019-04-07T16:01:26.909Z,97505.31
2019-04-07T16:03:57.030Z,97504.30
2019-04-07T16:06:26.422Z,97509.09
2019-04-07T16:08:58.829Z,97507.70
2019-04-07T16:11:29.356Z,97506.52
2019-04-07T16:13:58.344Z,97512.52
2019-04-07T16:16:29.315Z,97516.42
2019-04-07T16:18:59.351Z,97516.30
2019-04-07T16:21:29.781Z,97521.16
2019-04-07T16:23:59.478Z,97522.98
2019-04-07T16:26:31.202Z,97525.88
2019-04-07T16:28:59.577Z,97527.45
2019-04-07T16:31:28.771Z,97528.67
2019-04-07T16:34:00.284Z,97525.44
2019-04-07T16:36:30.252Z,97529.52
2019-04-07T16:39:01.898Z,97532.50
2019-04-07T16:41:30.464Z,97536.77
2019-04-07T16:44:03.480Z,97539.18
2019-04-07T16:46:31.533Z,97545.42
2019-04-07T16:49:01.727Z,97546.69
2019-04-07T16:51:33.643Z,97543.39
2019-04-07T16:54:02.759Z,97542.96
2019-04-07T16:56:32.308Z,97548.45
2019-04-07T16:59:02.652Z,97545.61
2019-04-07T17:01:32.231Z,97552.52
2019-04-07T17:04:01.422Z,97560.06
2019-04-07T17:06:34.719Z,97560.98
2019-04-07T17:09:02.449Z,97559.02
2019-04-07T17:11:32.326Z,97565.55
2019-04-07T17:14:02.915Z,97565.29
2019-04-07T17:16:33.409Z,97563.70
2019-04-07T17:19:04.152Z,97567.52
2019-04-07T17:21:33.317Z,97567.67
2019-04-07T17:24:04.040Z,97580.39
2019-04-07T17:26:35.380Z,97575.55
2019-04-07T17:29:04.979Z,97581.86
2019-04-07T17:31:34.798Z,97583.34
2019-04-07T17:34:07.327Z,97585.53
2019-04-07T17:36:35.445Z,97584.73
2019-04-07T17:39:25.993Z,97585.63
2019-04-07T17:41:57.332Z,97590.09
2019-04-07T17:44:48.344Z,97586.49
2019-04-07T17:47:31.445Z,97587.51
2019-04-07T17:50:17.891Z,97591.70
2019-04-07T17:53:14.159Z,97591.70
2019-04-07T17:55:59.826Z,97591.39
2019-04-07T17:58:57.345Z,97594.28
2019-04-07T18:01:33.518Z,97599.27
2019-04-07T18:04:27.934Z,97596.55
2019-04-07T18:07:15.190Z,97596.88
2019-04-07T18:10:15.489Z,97604.92
2019-04-07T18:13:10.776Z,97614.06
2019-04-07T18:15:52.035Z,97621.44
2019-04-07T18:18:51.725Z,97622.80
2019-04-07T18:21:39.773Z,97621.96
2019-04-07T18:24:15.160Z,97626.19
2019-04-07T18:26:56.996Z,97632.97
2019-04-07T18:29:34.292Z,97634.62
2019-04-07T18:32:31.918Z,97635.67
2019-04-07T18:35:23.765Z,97643.66
2019-04-07T18:38:10.254Z,97652.92
2019-04-07T18:41:00.410Z,97654.91
2019-04-07T18:44:02.347Z,97651.78
2019-04-07T18:46:47.663Z,97661.55
2019-04-07T18:49:32.958Z,97667.32
2019-04-07T18:52:37.856Z,97672.78
2019-04-07T18:55:27.294Z,97671.80
2019-04-07T18:58:15.408Z,97684.34
2019-04-07T19:01:15.787Z,97682.84
2019-04-07T19:04:01.184Z,97691.58
2019-04-07T19:06:41.159Z,97694.88
2019-04-07T19:09:32.330Z,97697.85
2019-04-07T19:12:28.866Z,97704.61
2019-04-07T19:15:17.940Z,97704.11
2019-04-07T19:18:04.632Z,97707.75
2019-04-07T19:20:50.108Z,97707.91
2019-04-07T19:23:44.099Z,97703.09
2019-04-07T19:26:33.516Z,97703.42
2019-04-07T19:29:25.132Z,97701.77
2019-04-07T19:32:23.487Z,97712.30
2019-04-07T19:35:15.154Z,97717.56
2019-04-07T19:37:53.933Z,97717.89
2019-04-07T19:40:49.233Z,97719.38
2019-04-07T19:43:37.131Z,97717.55
2019-04-07T19:46:28.197Z,97727.09
2019-04-07T19:49:17.842Z,97725.75
2019-04-07T19:51:51.694Z,97723.78
2019-04-07T19:54:51.462Z,97721.80
2019-04-07T19:57:38.560Z,97726.56
2019-04-07T20:00:28.911Z,97723.09
2019-04-07T20:03:17.929Z,97725.08
2019-04-07T20:06:09.335Z,97731.50
2019-04-07T20:09:09.867Z,97728.55
2019-04-07T20:11:52.796Z,97727.52
2019-04-07T20:15:01.466Z,97730.97
2019-04-07T20:17:50.565Z,97727.16
2019-04-07T20:20:35.810Z,97730.13
2019-04-07T20:23:32.179Z,97731.06
2019-04-07T20:26:35.097Z,97729.27
2019-04-07T20:29:32.486Z,97728.95
2019-04-07T20:32:18.617Z,97728.94
2019-04-07T20:35:10.947Z,97727.11
2019-04-07T20:38:06.288Z,97726.91
2019-04-07T20:41:04.115Z,97730.37
2019-04-07T20:44:01.560Z,97728.87
2019-04-07T20:46:44.819Z,97721.80
2019-04-07T20:49:35.679Z,97724.59
2019-04-07T20:52:42.758Z,97730.08
2019-04-07T20:55:24.821Z,97730.37
2019-04-07T20:58:23.804Z,97728.38
2019-04-07T21:01:10.993Z,97729.70
2019-04-07T21:04:02.321Z,97739.41
2019-04-07T21:06:50.789Z,97749.00
2019-04-07T21:09:33.368Z,97748.44
2019-04-07T21:12:32.416Z,97749.89
2019-04-07T21:15:31.037Z,97756.02
2019-04-07T21:18:14.730Z,97750.23
2019-04-07T21:21:15.177Z,97754.67
2019-04-07T21:24:18.199Z,97757.76
2019-04-07T21:27:03.806Z,97758.56
2019-04-07T21:29:41.413Z,97764.64
2019-04-07T21:32:19.039Z,97761.69
2019-04-07T21:35:13.215Z,97757.03
2019-04-07T21:38:21.559Z,97758.66
2019-04-07T21:41:01.940Z,97761.27
2019-04-07T21:43:38.368Z,97760.75
2019-04-07T21:46:32.614Z,97759.31
2019-04-07T21:49:32.784Z,97762.39
2019-04-07T21:52:08.222Z,97752.66
2019-04-07T21:54:59.837Z,97757.28
2019-04-07T21:57:43.783Z,97756.96
2019-04-07T22:03:27.165Z,97756.12
2019-04-07T22:06:18.344Z,97761.20
2019-04-07T22:08:52.571Z,97756.03
2019-04-07T22:11:24.706Z,97757.50
2019-04-07T22:13:53.363Z,97762.80
2019-04-07T22:16:24.220Z,97762.48
2019-04-07T22:18:53.595Z,97760.62
2019-04-07T22:21:24.060Z,97762.28
2019-04-07T22:23:54.187Z,97766.68
2019-04-07T22:26:23.423Z,97764.84
2019-04-07T22:28:52.561Z,97769.83
2019-04-07T22:31:27.004Z,97771.10
2019-04-07T22:33:58.384Z,97764.41
2019-04-07T22:36:27.331Z,97772.97
2019-04-07T22:38:59.745Z,97769.11
2019-04-07T22:41:28.166Z,97773.41
2019-04-07T22:43:57.498Z,97773.22
2019-04-07T22:46:27.393Z,97776.41
2019-04-07T22:48:58.456Z,97776.33
2019-04-07T22:51:28.549Z,97783.10
2019-04-07T22:53:58.703Z,97785.02
2019-04-07T22:56:28.400Z,97782.70
2019-04-07T22:58:57.596Z,97789.97
2019-04-07T23:01:27.198Z,97792.56
2019-04-07T23:03:56.461Z,97797.14
2019-04-07T23:06:26.589Z,97794.70
2019-04-07T23:08:55.821Z,97794.39
2019-04-07T23:11:25.771Z,97797.98
2019-04-07T23:13:55.490Z,97795.58
2019-04-07T23:16:24.653Z,97800.00
2019-04-07T23:18:54.169Z,97800.84
2019-04-07T23:21:23.768Z,97804.41
2019-04-07T23:23:53.879Z,97807.20
2019-04-07T23:26:23.024Z,97807.89
2019-04-07T23:28:52.201Z,97815.41
2019-04-07T23:31:21.538Z,97805.50
2019-04-07T23:33:50.713Z,97806.25
2019-04-07T23:36:20.091Z,97802.31
2019-04-07T23:38:49.638Z,97805.20
2019-04-07T23:41:18.874Z,97799.95
2019-04-07T23:43:48.326Z,97810.27
2019-04-07T23:46:23.183Z,97805.31
2019-04-07T23:48:49.628Z,97814.37
2019-04-07T23:51:19.001Z,97814.13
2019-04-07T23:54:14.420Z,97814.68
2019-04-07T23:56:45.808Z,97822.78
2019-04-07T23:59:15.178Z,97818.43
